Time;durP1;ratioP1;P1;durP2;ratioP2;P2;SDS_P1;SDS_P2;PMS_P1;PMS_P2;Temp;Humidity;BMP_temperature;BMP_pressure;BME280_temperature;BME280_humidity;BME280_pressure;Samples;Min_cycle;Max_cycle;Signal;HPM_P1;HPM_P2
2023/03/03 00:02:41;;;;;;;5.50;2.50;;;;;;;0.61;nan;102386.63;10187893;29;20052;-89
2023/03/03 00:07:48;;;;;;;4.07;2.58;;;;;;;0.56;nan;102380.22;10184607;29;20048;-89
2023/03/03 00:12:59;;;;;;;5.53;2.28;;;;;;;0.63;nan;102377.34;10185907;29;20115;-89
2023/03/03 00:18:31;;;;;;;4.80;2.88;;;;;;;0.61;nan;102373.75;10175250;29;20078;-90
2023/03/03 00:23:39;;;;;;;1.45;1.30;;;;;;;0.67;nan;102369.97;10188960;29;20051;-89
2023/03/03 00:28:48;;;;;;;1.83;1.42;;;;;;;0.57;nan;102371.69;10174701;29;20047;-89
2023/03/03 00:34:30;;;;;;;3.45;1.45;;;;;;;0.61;nan;102378.91;10183693;29;20412;-89
2023/03/03 00:39:43;;;;;;;4.85;2.83;;;;;;;0.66;nan;102393.06;10180094;29;20043;-89
2023/03/03 00:44:59;;;;;;;2.63;2.17;;;;;;;0.67;nan;102387.13;10184155;29;20104;-88
2023/03/03 00:50:10;;;;;;;5.57;2.58;;;;;;;0.63;nan;102382.50;10198766;28;20516;-89
2023/03/03 00:55:16;;;;;;;4.22;2.33;;;;;;;0.65;nan;102366.38;10193535;29;20401;-89
2023/03/03 01:00:39;;;;;;;2.55;2.08;;;;;;;0.70;nan;102359.91;10175789;29;20071;-88
2023/03/03 01:05:53;;;;;;;3.22;1.98;;;;;;;0.72;nan;102378.09;10192177;29;20051;-89
2023/03/03 01:10:57;;;;;;;5.75;2.92;;;;;;;0.74;nan;102376.56;10182216;29;20071;-89
2023/03/03 01:16:06;;;;;;;6.53;2.22;;;;;;;0.72;nan;102375.50;10187777;29;20079;-90
2023/03/03 01:21:15;;;;;;;5.72;3.22;;;;;;;0.63;nan;102378.25;10188279;29;20060;-89
2023/03/03 01:26:22;;;;;;;3.80;2.85;;;;;;;0.72;nan;102369.47;10187067;29;20424;-88
2023/03/03 01:31:27;;;;;;;20.52;2.75;;;;;;;0.77;nan;102368.19;10170525;29;20055;-88
2023/03/03 01:36:33;;;;;;;2.45;1.98;;;;;;;0.80;nan;102371.91;10187821;29;20050;-90
2023/03/03 01:41:34;;;;;;;8.43;5.05;;;;;;;0.77;nan;102361.34;10188081;29;20054;-89
2023/03/03 01:46:51;;;;;;;2.65;2.00;;;;;;;0.76;nan;102356.94;10188775;29;20048;-89
2023/03/03 01:52:03;;;;;;;6.75;2.53;;;;;;;0.77;nan;102355.28;10206683;29;20043;-88
2023/03/03 01:57:20;;;;;;;4.07;2.03;;;;;;;0.81;nan;102347.00;10171934;29;20557;-89
2023/03/03 02:02:31;;;;;;;6.25;3.03;;;;;;;0.89;nan;102345.97;10183430;29;20048;-88
2023/03/03 02:07:34;;;;;;;5.68;4.03;;;;;;;0.95;nan;102343.00;10180742;29;20612;-89
2023/03/03 02:12:41;;;;;;;4.75;3.50;;;;;;;0.93;nan;102335.13;10206345;29;20076;-89
2023/03/03 02:17:53;;;;;;;7.85;3.58;;;;;;;0.98;nan;102330.34;10212222;29;20075;-88
2023/03/03 02:23:10;;;;;;;3.47;1.48;;;;;;;1.00;nan;102341.66;10210145;29;20082;-89
2023/03/03 02:28:14;;;;;;;5.32;3.28;;;;;;;0.97;nan;102336.25;10185880;29;20578;-89
2023/03/03 02:33:16;;;;;;;5.20;2.78;;;;;;;0.99;nan;102337.28;10186090;29;20141;-89
2023/03/03 02:38:38;;;;;;;8.68;4.13;;;;;;;0.98;nan;102332.91;10190849;29;20056;-89
2023/03/03 02:44:28;;;;;;;5.05;3.92;;;;;;;1.02;nan;102342.69;10187086;29;20079;-89
2023/03/03 02:49:36;;;;;;;5.20;3.72;;;;;;;1.01;nan;102346.06;10184780;29;20048;-89
2023/03/03 02:54:55;;;;;;;4.90;2.78;;;;;;;1.05;nan;102342.94;10186685;29;20545;-89
2023/03/03 03:00:08;;;;;;;5.75;3.40;;;;;;;1.06;nan;102342.16;10170071;29;20047;-89
2023/03/03 03:05:25;;;;;;;3.78;2.75;;;;;;;1.05;nan;102353.25;10164145;29;20137;-89
2023/03/03 03:10:31;;;;;;;3.85;2.25;;;;;;;1.04;nan;102342.03;10186958;29;20052;-89
2023/03/03 03:15:38;;;;;;;4.22;2.40;;;;;;;1.07;nan;102349.13;10184512;29;20051;-89
2023/03/03 03:20:49;;;;;;;4.32;3.70;;;;;;;1.10;nan;102346.81;10186196;29;20140;-89
2023/03/03 03:25:52;;;;;;;2.90;2.03;;;;;;;1.18;nan;102339.66;10185863;29;20052;-89
2023/03/03 03:31:01;;;;;;;7.13;2.45;;;;;;;1.17;nan;102333.63;10186075;29;20051;-88
2023/03/03 03:36:10;;;;;;;3.53;2.67;;;;;;;1.09;nan;102326.03;10206571;29;20115;-89
2023/03/03 03:41:21;;;;;;;3.53;2.67;;;;;;;1.11;nan;102335.72;10168753;29;20143;-89
2023/03/03 03:46:26;;;;;;;5.10;2.47;;;;;;;1.14;nan;102332.44;10170788;29;20090;-90
2023/03/03 03:51:34;;;;;;;4.80;3.33;;;;;;;1.19;nan;102334.63;10169690;29;20504;-89
2023/03/03 03:56:37;;;;;;;2.80;2.15;;;;;;;1.23;nan;102323.78;10184807;29;20159;-89
2023/03/03 04:01:42;;;;;;;3.92;2.35;;;;;;;1.21;nan;102343.38;10169773;29;20055;-89
2023/03/03 04:06:48;;;;;;;2.67;1.75;;;;;;;1.24;nan;102343.63;10190627;29;20048;-89
2023/03/03 04:11:55;;;;;;;5.07;2.92;;;;;;;1.23;nan;102339.25;10185015;29;20047;-89
2023/03/03 04:17:01;;;;;;;3.80;2.15;;;;;;;1.21;nan;102347.66;10184413;29;20491;-89
2023/03/03 04:22:05;;;;;;;3.80;3.03;;;;;;;1.21;nan;102345.97;10170243;29;20044;-89
2023/03/03 04:27:23;;;;;;;8.98;2.88;;;;;;;1.25;nan;102334.22;10179167;29;20047;-89
2023/03/03 04:32:30;;;;;;;1.45;1.35;;;;;;;1.22;nan;102337.44;10171246;29;20053;-89
2023/03/03 04:37:39;;;;;;;7.57;3.92;;;;;;;1.26;nan;102332.53;10173661;29;20111;-88
2023/03/03 04:42:55;;;;;;;3.22;2.22;;;;;;;1.28;nan;102328.41;10178121;29;20052;-89
2023/03/03 04:48:02;;;;;;;10.23;4.43;;;;;;;1.28;nan;102325.84;10220316;28;20056;-89
2023/03/03 04:53:11;;;;;;;7.28;2.35;;;;;;;1.27;nan;102324.03;10215640;29;20115;-89
2023/03/03 04:58:26;;;;;;;2.90;2.07;;;;;;;1.29;nan;102322.44;10212959;29;20048;-89
2023/03/03 05:03:39;;;;;;;4.10;2.55;;;;;;;1.31;nan;102328.66;10160208;29;20063;-88
2023/03/03 05:08:52;;;;;;;1.73;1.35;;;;;;;1.32;nan;102322.69;10178759;29;20047;-90
2023/03/03 05:13:56;;;;;;;4.95;3.20;;;;;;;1.27;nan;102321.44;10189170;29;20059;-88
2023/03/03 05:18:59;;;;;;;4.20;2.88;;;;;;;1.28;nan;102311.25;10189213;29;20123;-89
2023/03/03 05:24:11;;;;;;;3.53;2.30;;;;;;;1.29;nan;102312.13;10188879;29;20067;-89
2023/03/03 05:29:16;;;;;;;2.47;1.88;;;;;;;1.27;nan;102306.84;10188143;29;20048;-89
2023/03/03 05:34:28;;;;;;;3.70;2.35;;;;;;;1.26;nan;102306.72;10189908;29;20047;-88
2023/03/03 05:39:39;;;;;;;4.72;1.95;;;;;;;1.24;nan;102312.66;10187446;29;20571;-89
2023/03/03 05:44:49;;;;;;;4.05;2.85;;;;;;;1.26;nan;102319.63;10188525;29;20051;-89
2023/03/03 05:50:05;;;;;;;2.13;1.73;;;;;;;1.20;nan;102315.81;10187431;29;20147;-89
2023/03/03 05:55:15;;;;;;;5.53;2.20;;;;;;;1.21;nan;102319.28;10188891;29;20436;-89
2023/03/03 06:00:24;;;;;;;2.42;1.98;;;;;;;1.15;nan;102317.09;10186465;29;20052;-89
2023/03/03 06:05:26;;;;;;;3.33;2.53;;;;;;;1.08;nan;102330.28;10194974;29;20060;-85
2023/03/03 06:10:27;;;;;;;2.42;1.50;;;;;;;0.93;nan;102331.63;10183245;29;20056;-85
2023/03/03 06:15:32;;;;;;;2.78;1.83;;;;;;;0.85;nan;102343.91;10183267;29;20416;-87
2023/03/03 06:20:35;;;;;;;2.50;1.55;;;;;;;0.77;nan;102353.59;10199794;29;20431;-86
2023/03/03 06:25:38;;;;;;;3.28;1.65;;;;;;;0.79;nan;102359.78;10200282;29;20138;-86
2023/03/03 06:30:40;;;;;;;3.88;2.53;;;;;;;0.84;nan;102363.66;10168020;29;20428;-85
2023/03/03 06:35:42;;;;;;;3.08;1.20;;;;;;;0.93;nan;102375.47;10190356;29;20089;-89
2023/03/03 06:40:45;;;;;;;0.85;0.77;;;;;;;0.90;nan;102383.84;10183039;29;20055;-90
2023/03/03 06:45:51;;;;;;;4.47;3.60;;;;;;;0.92;nan;102384.00;10183644;29;20548;-89
2023/03/03 06:50:54;;;;;;;5.05;3.33;;;;;;;0.99;nan;102373.41;10181751;29;20040;-88
2023/03/03 06:56:00;;;;;;;2.42;1.05;;;;;;;1.03;nan;102378.03;10166100;29;20432;-89
2023/03/03 07:01:19;;;;;;;1.70;1.60;;;;;;;1.00;nan;102375.22;10185859;29;20058;-89
2023/03/03 07:06:28;;;;;;;3.90;1.90;;;;;;;0.98;nan;102392.25;10178644;29;20052;-89
2023/03/03 07:11:32;;;;;;;3.25;2.22;;;;;;;1.00;nan;102393.25;10202441;29;20079;-89
2023/03/03 07:16:36;;;;;;;3.15;1.92;;;;;;;1.04;nan;102387.59;10185499;29;20801;-89
2023/03/03 07:21:40;;;;;;;2.78;1.23;;;;;;;1.04;nan;102396.22;10186747;29;20087;-88
2023/03/03 07:26:45;;;;;;;2.33;1.75;;;;;;;1.11;nan;102400.22;10187809;29;20055;-89
2023/03/03 07:31:49;;;;;;;7.45;2.13;;;;;;;1.08;nan;102405.09;10198821;29;20083;-90
2023/03/03 07:37:00;;;;;;;3.08;1.95;;;;;;;1.22;nan;102404.53;10217423;28;20051;-90
2023/03/03 07:42:20;;;;;;;1.83;1.40;;;;;;;1.40;nan;102406.81;10210900;29;20522;-89
2023/03/03 07:47:36;;;;;;;3.72;2.50;;;;;;;1.37;nan;102404.88;10179814;28;20047;-89
2023/03/03 07:52:57;;;;;;;1.95;1.50;;;;;;;1.51;nan;102402.50;10195052;28;20060;-89
2023/03/03 07:58:13;;;;;;;3.42;2.20;;;;;;;1.71;nan;102411.81;10199185;28;20055;-89
2023/03/03 08:03:21;;;;;;;4.35;1.77;;;;;;;1.79;nan;102409.84;10178506;29;20048;-89
2023/03/03 08:08:35;;;;;;;2.35;1.38;;;;;;;1.91;nan;102409.13;10182559;29;20107;-89
2023/03/03 08:13:40;;;;;;;2.25;2.05;;;;;;;2.21;nan;102416.56;10163511;29;20062;-88
2023/03/03 08:18:52;;;;;;;2.15;1.45;;;;;;;2.40;nan;102398.19;10186184;29;20138;-88
2023/03/03 08:24:00;;;;;;;6.60;1.67;;;;;;;2.39;nan;102396.41;10185913;29;20066;-89
2023/03/03 08:29:04;;;;;;;1.70;1.27;;;;;;;2.37;nan;102404.03;10187200;29;20059;-89
2023/03/03 08:34:07;;;;;;;2.70;1.52;;;;;;;2.67;nan;102398.47;10148643;29;20082;-88
2023/03/03 08:39:09;;;;;;;1.92;1.55;;;;;;;2.98;nan;102391.31;10204079;29;20052;-89
2023/03/03 08:44:11;;;;;;;3.80;2.10;;;;;;;3.01;nan;102399.28;10185823;29;20130;-89
2023/03/03 08:49:17;;;;;;;2.35;1.27;;;;;;;3.29;nan;102409.97;10185395;29;20423;-89
2023/03/03 08:54:23;;;;;;;4.95;1.98;;;;;;;3.09;nan;102405.94;10186528;29;20522;-88
2023/03/03 08:59:25;;;;;;;2.40;1.20;;;;;;;3.05;nan;102403.91;10183954;29;20047;-88
2023/03/03 09:04:30;;;;;;;1.42;1.00;;;;;;;2.92;nan;102412.44;10184801;29;20078;-89
2023/03/03 09:09:32;;;;;;;2.47;1.52;;;;;;;3.16;nan;102405.59;10184153;29;20058;-88
2023/03/03 09:14:34;;;;;;;2.00;1.30;;;;;;;3.38;nan;102414.00;10160870;29;20065;-89
2023/03/03 09:19:40;;;;;;;2.95;1.23;;;;;;;3.68;nan;102426.59;10185411;28;20100;-88
2023/03/03 09:24:52;;;;;;;1.48;1.15;;;;;;;3.67;nan;102419.59;10184522;29;20575;-88
2023/03/03 09:29:56;;;;;;;2.22;1.23;;;;;;;3.85;nan;102425.19;10183094;29;20044;-88
2023/03/03 09:34:59;;;;;;;1.67;0.70;;;;;;;4.31;nan;102414.53;10201062;29;20075;-88
2023/03/03 09:40:37;;;;;;;2.47;1.60;;;;;;;4.73;nan;102407.84;10167916;29;20605;-88
2023/03/03 09:46:03;;;;;;;4.05;2.22;;;;;;;4.73;nan;102407.84;10178031;29;20056;-88
2023/03/03 09:51:26;;;;;;;2.35;1.42;;;;;;;5.31;nan;102409.88;10201637;29;20055;-88
2023/03/03 09:57:02;;;;;;;4.18;2.22;;;;;;;5.57;nan;102405.44;10185432;29;20056;-87
2023/03/03 10:02:38;;;;;;;7.07;1.25;;;;;;;6.09;nan;102410.44;10182856;29;20043;-87
2023/03/03 10:07:59;;;;;;;1.02;0.90;;;;;;;6.94;nan;102412.88;10190233;29;20047;-88
2023/03/03 10:13:01;;;;;;;3.50;1.77;;;;;;;6.81;nan;102419.94;10182142;29;20048;-88
2023/03/03 10:18:27;;;;;;;2.08;0.95;;;;;;;7.12;nan;102408.72;10182357;29;20688;-87
2023/03/03 10:23:53;;;;;;;3.08;1.40;;;;;;;7.31;nan;102409.75;10184504;29;20097;-87
2023/03/03 10:29:35;;;;;;;4.05;2.05;;;;;;;7.31;nan;102417.56;10193321;29;20094;-88
2023/03/03 10:35:20;;;;;;;3.25;1.85;;;;;;;7.31;nan;102414.94;10164501;29;20074;-89
2023/03/03 10:41:03;;;;;;;5.60;1.98;;;;;;;7.30;nan;102413.19;10170679;29;20043;-88
2023/03/03 10:46:16;;;;;;;5.40;2.38;;;;;;;7.40;nan;102412.84;10177395;29;20874;-88
2023/03/03 10:52:06;;;;;;;3.13;1.58;;;;;;;7.40;nan;102412.84;10159341;29;20132;-89
2023/03/03 10:57:31;;;;;;;4.10;1.48;;;;;;;8.01;nan;102417.06;10164367;29;20059;-89
2023/03/03 11:02:33;;;;;;;2.92;1.45;;;;;;;8.26;nan;102412.31;10164704;29;20046;-88
2023/03/03 11:07:41;;;;;;;3.88;2.00;;;;;;;7.97;nan;102418.59;10163676;29;20427;-87
2023/03/03 11:12:56;;;;;;;1.38;0.93;;;;;;;7.48;nan;102416.81;10147012;29;20058;-88
2023/03/03 11:18:15;;;;;;;1.85;1.20;;;;;;;7.39;nan;102411.97;10155844;29;20065;-89
2023/03/03 11:24:01;;;;;;;4.40;1.90;;;;;;;7.17;nan;102412.47;10194247;29;20698;-87
2023/03/03 11:29:51;;;;;;;1.88;0.80;;;;;;;6.93;nan;102411.94;10155475;23;20438;-88
2023/03/03 11:34:57;;;;;;;2.58;1.13;;;;;;;6.81;nan;102409.53;10149354;29;20087;-88
2023/03/03 11:40:10;;;;;;;1.85;1.20;;;;;;;6.69;nan;102420.13;10145762;29;20108;-87
2023/03/03 11:45:17;;;;;;;2.63;1.17;;;;;;;6.57;nan;102405.50;10130809;29;20082;-87
2023/03/03 11:50:24;;;;;;;1.40;0.98;;;;;;;6.42;nan;102403.75;10137192;29;20099;-87
2023/03/03 11:55:32;;;;;;;1.30;0.80;;;;;;;6.30;nan;102398.72;10133704;29;20079;-87
2023/03/03 12:00:45;;;;;;;2.03;1.25;;;;;;;6.46;nan;102397.94;10142262;29;20089;-87
2023/03/03 12:06:09;;;;;;;2.97;1.25;;;;;;;6.65;nan;102391.22;10144887;29;20052;-87
2023/03/03 12:11:36;;;;;;;1.77;0.93;;;;;;;6.61;nan;102387.53;10152993;29;20055;-87
2023/03/03 12:16:56;;;;;;;0.52;0.52;;;;;;;6.66;nan;102385.22;10144867;29;20143;-87
2023/03/03 12:22:12;;;;;;;1.90;0.95;;;;;;;6.67;nan;102374.00;10125375;29;20061;-88
2023/03/03 12:27:25;;;;;;;6.28;2.03;;;;;;;6.69;nan;102364.56;10138739;29;20135;-88
2023/03/03 12:32:42;;;;;;;3.17;1.15;;;;;;;6.60;nan;102364.91;10144682;29;20056;-87
2023/03/03 12:38:01;;;;;;;1.63;0.88;;;;;;;6.71;nan;102358.66;10147973;29;20111;-88
2023/03/03 12:43:20;;;;;;;0.77;0.70;;;;;;;6.90;nan;102355.41;10160003;29;20055;-86
2023/03/03 12:48:42;;;;;;;1.42;0.70;;;;;;;6.86;nan;102353.44;10133384;29;20110;-89
2023/03/03 12:54:11;;;;;;;2.17;0.57;;;;;;;6.74;nan;102350.13;10121960;29;20572;-87
2023/03/03 12:59:35;;;;;;;2.40;0.80;;;;;;;6.61;nan;102339.81;10141335;29;20048;-87
2023/03/03 13:05:20;;;;;;;1.02;0.70;;;;;;;6.43;nan;102344.84;10141119;29;20056;-88
2023/03/03 13:10:41;;;;;;;2.42;1.05;;;;;;;6.41;nan;102341.22;10113330;29;20086;-87
2023/03/03 13:15:57;;;;;;;4.72;1.77;;;;;;;6.19;nan;102330.44;10138719;29;20337;-86
2023/03/03 13:21:33;;;;;;;3.70;1.17;;;;;;;6.15;nan;102332.78;10144329;29;20536;-87
2023/03/03 13:26:57;;;;;;;2.28;1.27;;;;;;;6.27;nan;102335.22;10148326;29;20087;-87
2023/03/03 13:32:07;;;;;;;1.60;0.75;;;;;;;6.52;nan;102315.03;10153908;29;20138;-86
2023/03/03 13:37:26;;;;;;;2.00;1.00;;;;;;;6.50;nan;102318.34;10145923;29;20523;-87
2023/03/03 13:42:44;;;;;;;2.00;0.98;;;;;;;6.33;nan;102305.25;10133016;29;20139;-87
2023/03/03 13:48:06;;;;;;;1.85;1.00;;;;;;;6.71;nan;102297.84;10125556;29;20147;-88
2023/03/03 13:53:44;;;;;;;2.10;0.63;;;;;;;6.93;nan;102291.28;10135497;29;20088;-87
2023/03/03 13:58:55;;;;;;;0.65;0.55;;;;;;;6.95;nan;102279.22;10147005;29;20509;-88
2023/03/03 14:03:59;;;;;;;;;;;;;;;6.82;nan;102288.06;10116925;29;20142;-88
2023/03/03 14:09:32;;;;;;;1.67;0.93;;;;;;;6.52;nan;102275.09;10146451;29;20347;-86
2023/03/03 14:14:40;;;;;;;1.98;0.88;;;;;;;6.61;nan;102272.13;10140693;29;20131;-87
2023/03/03 14:19:48;;;;;;;4.40;1.10;;;;;;;6.62;nan;102264.41;10137207;29;20408;-85
2023/03/03 14:25:11;;;;;;;0.47;0.40;;;;;;;6.51;nan;102255.97;10125187;29;20357;-88
2023/03/03 14:30:42;;;;;;;1.40;0.90;;;;;;;6.45;nan;102253.00;10138958;29;20060;-86
2023/03/03 14:35:59;;;;;;;0.88;0.65;;;;;;;6.58;nan;102248.53;10135789;29;20458;-84
2023/03/03 14:41:17;;;;;;;1.95;1.25;;;;;;;6.53;nan;102237.84;10135652;29;20074;-85
2023/03/03 14:46:30;;;;;;;0.95;0.70;;;;;;;6.36;nan;102231.69;10138846;29;20074;-86
2023/03/03 14:51:45;;;;;;;1.88;0.82;;;;;;;6.45;nan;102237.41;10136498;29;20221;-86
2023/03/03 14:56:57;;;;;;;2.85;1.10;;;;;;;6.42;nan;102228.53;10166221;29;20047;-85
2023/03/03 15:02:17;;;;;;;0.73;0.63;;;;;;;6.34;nan;102229.00;10157691;29;20516;-86
2023/03/03 15:07:35;;;;;;;1.30;0.90;;;;;;;6.37;nan;102225.69;10149040;29;20063;-86
2023/03/03 15:12:39;;;;;;;3.58;0.90;;;;;;;6.39;nan;102226.66;10137161;29;20129;-86
2023/03/03 15:18:05;;;;;;;5.45;0.60;;;;;;;6.18;nan;102221.13;10144441;29;20088;-85
2023/03/03 15:23:30;;;;;;;0.60;0.32;;;;;;;6.16;nan;102226.22;10155609;29;20080;-87
2023/03/03 15:28:53;;;;;;;0.30;0.30;;;;;;;5.93;nan;102224.84;10153265;29;20137;-87
2023/03/03 15:34:04;;;;;;;0.17;0.17;;;;;;;5.76;nan;102220.34;10156487;29;20056;-86
2023/03/03 15:39:21;;;;;;;0.95;0.70;;;;;;;5.80;nan;102220.63;10152292;29;20079;-86
2023/03/03 15:44:31;;;;;;;0.40;0.40;;;;;;;5.91;nan;102204.78;10153137;29;20159;-86
2023/03/03 15:49:33;;;;;;;1.83;0.52;;;;;;;5.84;nan;102201.81;10154858;29;20438;-86
2023/03/03 15:54:50;;;;;;;0.80;0.50;;;;;;;5.81;nan;102191.22;10139166;29;20108;-86
2023/03/03 16:00:02;;;;;;;1.85;0.75;;;;;;;5.88;nan;102196.78;10154943;29;20089;-86
2023/03/03 16:05:20;;;;;;;0.68;0.50;;;;;;;5.86;nan;102198.41;10154336;29;20059;-86
2023/03/03 16:11:01;;;;;;;1.27;0.50;;;;;;;5.77;nan;102194.44;10154164;29;20048;-86
2023/03/03 16:16:16;;;;;;;;;;;;;;;5.72;nan;102189.78;10153877;29;20456;-86
2023/03/03 16:21:51;;;;;;;2.15;0.60;;;;;;;5.59;nan;102198.56;10147163;29;19923;-87
2023/03/03 16:27:04;;;;;;;0.50;0.50;;;;;;;5.44;nan;102194.22;10140769;29;20655;-87
2023/03/03 16:32:15;;;;;;;0.75;0.55;;;;;;;5.40;nan;102197.44;10163899;29;20052;-86
2023/03/03 16:37:34;;;;;;;0.88;0.50;;;;;;;5.41;nan;102201.84;10134526;29;20430;-87
2023/03/03 16:42:36;;;;;;;2.33;0.37;;;;;;;5.31;nan;102204.66;10146331;29;20075;-86
2023/03/03 16:47:48;;;;;;;0.40;0.40;;;;;;;5.21;nan;102197.09;10155498;29;20040;-88
2023/03/03 16:53:00;;;;;;;1.92;1.05;;;;;;;5.12;nan;102208.75;10145575;29;20218;-86
2023/03/03 16:58:39;;;;;;;1.15;0.80;;;;;;;5.13;nan;102209.63;10115089;29;20059;-86
2023/03/03 17:04:25;;;;;;;2.70;0.70;;;;;;;5.08;nan;102213.66;10160425;29;20048;-87
2023/03/03 17:09:34;;;;;;;4.57;1.00;;;;;;;4.98;nan;102212.16;10159982;29;20037;-87
2023/03/03 17:14:51;;;;;;;2.63;1.33;;;;;;;4.98;nan;102217.34;10160380;29;20130;-85
2023/03/03 17:20:05;;;;;;;1.15;0.38;;;;;;;4.93;nan;102216.19;10160821;29;20056;-85
2023/03/03 17:25:20;;;;;;;4.38;1.15;;;;;;;4.84;nan;102218.19;10148030;29;21488;-85
2023/03/03 17:30:29;;;;;;;3.72;1.45;;;;;;;4.76;nan;102218.59;10159300;29;20056;-87
2023/03/03 17:35:50;;;;;;;1.80;1.00;;;;;;;4.74;nan;102229.69;10145502;29;20059;-87
2023/03/03 17:40:59;;;;;;;2.30;0.90;;;;;;;4.70;nan;102230.28;10150323;29;20521;-86
2023/03/03 17:46:13;;;;;;;6.37;1.43;;;;;;;4.66;nan;102230.91;10165757;29;20529;-87
2023/03/03 17:51:53;;;;;;;3.38;1.00;;;;;;;4.65;nan;102232.56;10152920;29;20060;-87
2023/03/03 17:57:13;;;;;;;1.55;0.90;;;;;;;4.67;nan;102228.41;10145145;29;20564;-86
2023/03/03 18:02:36;;;;;;;6.47;1.70;;;;;;;4.62;nan;102234.97;10142588;29;20178;-87
2023/03/03 18:08:06;;;;;;;3.70;1.05;;;;;;;4.60;nan;102229.69;10161916;29;20440;-86
2023/03/03 18:13:37;;;;;;;15.45;4.72;;;;;;;4.60;nan;102228.81;10143414;29;20062;-87
2023/03/03 18:19:00;;;;;;;6.05;2.53;;;;;;;4.61;nan;102230.59;10160335;29;20095;-87
2023/03/03 18:24:34;;;;;;;1.98;1.27;;;;;;;4.54;nan;102223.22;10158700;29;20065;-87
2023/03/03 18:30:20;;;;;;;5.35;1.70;;;;;;;4.53;nan;102224.91;10143141;29;20127;-87
2023/03/03 18:35:33;;;;;;;4.10;0.82;;;;;;;4.48;nan;102223.72;10147772;29;20083;-87
2023/03/03 18:41:01;;;;;;;0.93;0.70;;;;;;;4.49;nan;102220.34;10139587;29;20056;-87
2023/03/03 18:46:03;;;;;;;2.95;1.17;;;;;;;4.55;nan;102222.44;10157870;29;20209;-88
2023/03/03 18:51:07;;;;;;;1.15;0.90;;;;;;;4.51;nan;102213.53;10145862;29;20071;-88
2023/03/03 18:56:10;;;;;;;2.47;1.33;;;;;;;4.49;nan;102222.00;10140383;29;20234;-88
2023/03/03 19:02:07;;;;;;;3.00;1.77;;;;;;;4.44;nan;102229.50;10147364;29;20052;-87
2023/03/03 19:07:25;;;;;;;5.72;1.73;;;;;;;4.43;nan;102228.59;10142921;29;20052;-88
2023/03/03 19:12:50;;;;;;;2.58;1.42;;;;;;;4.52;nan;102240.38;10144583;29;20047;-88
2023/03/03 19:18:18;;;;;;;2.72;1.00;;;;;;;4.45;nan;102220.03;10148969;29;20059;-89
2023/03/03 19:23:41;;;;;;;1.05;0.85;;;;;;;4.41;nan;102237.06;10142331;29;20051;-89
2023/03/03 19:29:16;;;;;;;2.92;1.33;;;;;;;4.42;nan;102234.59;10156404;29;20075;-88
2023/03/03 20:00:29;;;;;;;1.50;0.73;;;;;;;4.49;nan;102232.38;10306590;23;20416;-88
2023/03/03 20:05:49;;;;;;;2.78;1.13;;;;;;;4.46;nan;102240.88;10172174;29;20095;-88
2023/03/03 20:11:36;;;;;;;5.97;0.98;;;;;;;4.45;nan;102227.81;10186651;29;20059;-87
2023/03/03 20:16:43;;;;;;;2.13;0.60;;;;;;;4.47;nan;102244.38;10183993;29;20051;-87
2023/03/03 20:22:30;;;;;;;5.72;1.20;;;;;;;4.47;nan;102236.59;10171201;29;20142;-88
2023/03/03 20:27:46;;;;;;;3.88;1.42;;;;;;;4.46;nan;102245.16;10160610;29;20076;-88
2023/03/03 20:33:44;;;;;;;7.10;2.78;;;;;;;4.42;nan;102242.38;10186519;29;20048;-88
2023/03/03 20:39:08;;;;;;;1.35;0.80;;;;;;;4.47;nan;102249.56;10179979;28;20045;-88
2023/03/03 20:44:32;;;;;;;1.15;0.70;;;;;;;4.47;nan;102252.16;10164542;29;20548;-88
2023/03/03 20:50:14;;;;;;;3.22;1.50;;;;;;;4.50;nan;102250.63;10169021;29;20047;-88
2023/03/03 20:56:30;;;;;;;6.60;0.80;;;;;;;4.49;nan;102251.47;10200535;29;20052;-88
2023/03/03 21:02:14;;;;;;;1.08;0.68;;;;;;;4.53;nan;102255.13;10177830;29;20070;-88
2023/03/03 21:07:27;;;;;;;3.58;1.65;;;;;;;4.57;nan;102257.16;10180933;29;20095;-88
2023/03/03 21:12:40;;;;;;;0.25;0.25;;;;;;;4.54;nan;102262.13;10175754;29;20048;-89
2023/03/03 21:17:54;;;;;;;3.80;1.17;;;;;;;4.53;nan;102257.72;10160660;29;20055;-88
2023/03/03 21:23:11;;;;;;;2.17;0.70;;;;;;;4.52;nan;102255.94;10185558;29;20106;-89
2023/03/03 21:28:24;;;;;;;3.00;1.48;;;;;;;4.51;nan;102257.63;10177631;29;20157;-87
2023/03/03 21:33:47;;;;;;;10.95;2.03;;;;;;;4.51;nan;102256.75;10198326;29;20749;-87
2023/03/03 21:38:53;;;;;;;9.48;1.70;;;;;;;4.55;nan;102246.66;10166392;29;20052;-88
2023/03/03 21:43:58;;;;;;;0.63;0.35;;;;;;;4.52;nan;102246.47;10183041;29;20051;-87
2023/03/03 21:49:00;;;;;;;3.47;1.75;;;;;;;4.52;nan;102245.56;10174251;29;20066;-88
2023/03/03 21:54:02;;;;;;;3.20;0.60;;;;;;;4.55;nan;102248.38;10166329;29;20048;-89
2023/03/03 21:59:14;;;;;;;0.60;0.55;;;;;;;4.55;nan;102248.38;10170638;28;20056;-88
2023/03/03 22:04:18;;;;;;;4.07;0.52;;;;;;;4.54;nan;102234.47;10198115;29;20055;-88
2023/03/03 22:09:20;;;;;;;7.53;0.82;;;;;;;4.50;nan;102236.78;10203341;29;20668;-88
2023/03/03 22:14:25;;;;;;;5.57;0.85;;;;;;;4.49;nan;102227.19;10193500;29;20051;-88
2023/03/03 22:19:32;;;;;;;2.70;0.90;;;;;;;4.49;nan;102233.31;10198241;29;20047;-88
2023/03/03 22:24:38;;;;;;;4.80;1.27;;;;;;;4.54;nan;102234.47;10194570;29;20654;-88
2023/03/03 22:29:40;;;;;;;4.93;1.65;;;;;;;4.52;nan;102227.41;10191328;29;20048;-88
2023/03/03 22:34:42;;;;;;;2.55;0.63;;;;;;;4.46;nan;102227.00;10188832;29;20440;-87
2023/03/03 22:39:43;;;;;;;0.55;0.52;;;;;;;4.39;nan;102217.94;10181734;29;20076;-88
2023/03/03 22:44:45;;;;;;;5.07;0.85;;;;;;;4.40;nan;102220.63;10182232;29;20122;-88
2023/03/03 22:49:51;;;;;;;2.45;1.10;;;;;;;4.42;nan;102219.03;10165586;29;20052;-88
2023/03/03 22:54:53;;;;;;;0.85;0.30;;;;;;;4.49;nan;102225.53;10182932;29;20183;-89
2023/03/03 22:59:55;;;;;;;1.00;0.50;;;;;;;4.46;nan;102224.41;10183693;29;20051;-88
2023/03/03 23:05:07;;;;;;;0.85;0.40;;;;;;;4.44;nan;102224.31;10185767;29;20415;-88
2023/03/03 23:10:12;;;;;;;1.08;0.95;;;;;;;4.47;nan;102223.63;10199017;28;20060;-89
2023/03/03 23:15:15;;;;;;;13.23;0.77;;;;;;;4.49;nan;102224.59;10233354;28;20074;-89
2023/03/03 23:20:23;;;;;;;0.77;0.60;;;;;;;4.48;nan;102217.63;10236164;29;20087;-88
2023/03/03 23:25:29;;;;;;;2.33;0.52;;;;;;;4.46;nan;102214.94;10236148;28;20043;-88
2023/03/03 23:30:31;;;;;;;1.17;0.52;;;;;;;4.45;nan;102212.25;10233841;28;20055;-88
2023/03/03 23:35:35;;;;;;;0.95;0.60;;;;;;;4.47;nan;102208.06;10236759;28;20493;-88
2023/03/03 23:40:37;;;;;;;1.80;1.05;;;;;;;4.46;nan;102206.25;10236407;28;20027;-88
2023/03/03 23:45:39;;;;;;;1.40;0.75;;;;;;;4.46;nan;102199.38;10236314;28;20062;-87
2023/03/03 23:50:41;;;;;;;1.95;0.75;;;;;;;4.43;nan;102205.25;10252185;28;20060;-88
2023/03/03 23:55:44;;;;;;;1.95;1.42;;;;;;;4.44;nan;102198.38;10190794;28;20090;-88
